createdAt,value
2019-04-20T00:01:29.380Z,7.03
2019-04-20T00:04:01.034Z,6.94
2019-04-20T00:06:43.212Z,6.90
2019-04-20T00:09:15.388Z,6.87
2019-04-20T00:11:53.533Z,6.80
2019-04-20T00:14:25.680Z,6.78
2019-04-20T00:16:54.683Z,6.76
2019-04-20T00:19:35.384Z,6.72
2019-04-20T00:22:09.865Z,6.68
2019-04-20T00:25:07.029Z,6.64
2019-04-20T00:28:12.002Z,6.57
2019-04-20T00:30:46.629Z,6.49
2019-04-20T00:33:14.746Z,6.43
2019-04-20T00:35:37.996Z,6.38
2019-04-20T00:38:11.939Z,6.33
2019-04-20T00:40:49.526Z,6.28
2019-04-20T00:43:26.247Z,6.22
2019-04-20T00:46:01.969Z,6.14
2019-04-20T00:48:37.423Z,6.14
2019-04-20T00:51:23.912Z,6.00
2019-04-20T00:53:43.196Z,5.94
2019-04-20T00:56:11.965Z,5.92
2019-04-20T00:59:04.245Z,5.92
2019-04-20T01:01:36.203Z,5.96
2019-04-20T01:04:14.831Z,5.96
2019-04-20T01:06:50.084Z,5.97
2019-04-20T01:09:24.725Z,5.94
2019-04-20T01:11:56.885Z,5.88
2019-04-20T01:14:37.068Z,5.84
2019-04-20T01:17:11.797Z,5.83
2019-04-20T01:19:39.987Z,5.78
2019-04-20T01:22:19.761Z,5.74
2019-04-20T01:24:52.974Z,5.68
2019-04-20T01:27:39.800Z,5.61
2019-04-20T01:30:05.842Z,5.51
2019-04-20T01:32:49.208Z,5.56
2019-04-20T01:35:22.800Z,5.55
2019-04-20T01:37:57.428Z,5.47
2019-04-20T01:40:14.720Z,5.41
2019-04-20T01:42:51.150Z,5.41
2019-04-20T01:45:30.789Z,5.39
2019-04-20T01:48:01.273Z,5.38
2019-04-20T01:50:37.950Z,5.21
2019-04-20T01:53:16.466Z,5.12
2019-04-20T01:55:55.407Z,5.12
2019-04-20T01:58:47.219Z,5.15
2019-04-20T02:01:39.059Z,5.13
2019-04-20T02:04:39.037Z,5.06
2019-04-20T02:07:08.663Z,4.93
2019-04-20T02:09:48.525Z,4.86
2019-04-20T02:12:20.303Z,4.83
2019-04-20T02:14:55.486Z,4.80
2019-04-20T02:17:31.899Z,4.78
2019-04-20T02:20:19.839Z,4.77
2019-04-20T02:22:46.550Z,4.79
2019-04-20T02:25:05.836Z,4.80
2019-04-20T02:27:48.179Z,4.80
2019-04-20T02:30:53.870Z,4.79
2019-04-20T02:36:25.383Z,4.69
2019-04-20T02:41:53.365Z,4.61
2019-04-20T02:49:37.609Z,4.55
2019-04-20T02:54:40.347Z,4.45
2019-04-20T02:57:12.227Z,4.45
2019-04-20T03:02:06.315Z,4.43
2019-04-20T03:04:34.061Z,4.44
2019-04-20T03:07:09.244Z,4.40
2019-04-20T03:09:44.262Z,4.30
2019-04-20T03:12:23.723Z,4.24
2019-04-20T03:14:47.305Z,4.18
2019-04-20T03:17:32.630Z,4.16
2019-04-20T03:20:00.619Z,4.17
2019-04-20T03:23:05.500Z,4.16
2019-04-20T03:25:18.698Z,4.15
2019-04-20T03:28:01.271Z,4.14
2019-04-20T03:36:00.369Z,4.12
2019-04-20T03:38:16.951Z,4.11
2019-04-20T03:40:45.375Z,4.07
2019-04-20T03:43:07.659Z,4.07
2019-04-20T03:45:48.429Z,4.03
2019-04-20T03:48:34.571Z,4.03
2019-04-20T03:51:07.275Z,4.01
2019-04-20T03:53:39.309Z,3.99
2019-04-20T03:56:41.925Z,4.02
2019-04-20T03:59:33.232Z,4.04
2019-04-20T04:02:49.296Z,4.07
2019-04-20T04:05:13.554Z,4.04
2019-04-20T04:07:40.266Z,3.99
2019-04-20T04:10:20.689Z,3.98
2019-04-20T04:13:09.532Z,3.93
2019-04-20T04:15:48.749Z,3.93
2019-04-20T04:18:25.443Z,3.94
2019-04-20T04:20:59.428Z,3.94
2019-04-20T04:23:45.933Z,3.96
2019-04-20T04:26:17.305Z,3.94
2019-04-20T04:28:47.481Z,3.96
2019-04-20T04:31:28.056Z,3.99
2019-04-20T04:34:14.717Z,4.01
2019-04-20T04:36:35.880Z,4.05
2019-04-20T04:39:22.857Z,4.06
2019-04-20T04:41:42.335Z,4.10
2019-04-20T04:44:11.121Z,4.08
2019-04-20T04:46:33.867Z,4.11
2019-04-20T04:49:16.474Z,4.17
2019-04-20T04:51:50.401Z,4.22
2019-04-20T04:54:25.873Z,4.30
2019-04-20T04:56:48.389Z,4.40
2019-04-20T04:59:23.428Z,4.51
2019-04-20T05:01:58.076Z,4.60
2019-04-20T05:05:28.044Z,4.68
2019-04-20T05:07:52.100Z,4.81
2019-04-20T05:10:16.252Z,4.92
2019-04-20T05:12:50.160Z,5.07
2019-04-20T05:15:40.448Z,5.21
2019-04-20T05:18:17.248Z,5.36
2019-04-20T05:20:56.980Z,5.54
2019-04-20T05:23:41.430Z,5.75
2019-04-20T05:26:37.562Z,6.02
2019-04-20T05:28:59.022Z,6.20
2019-04-20T05:31:36.728Z,6.32
2019-04-20T05:34:26.043Z,6.41
2019-04-20T05:36:58.072Z,6.50
2019-04-20T05:39:32.907Z,6.56
2019-04-20T05:42:02.906Z,6.46
2019-04-20T05:44:46.030Z,6.71
2019-04-20T05:47:18.434Z,6.82
2019-04-20T05:49:50.133Z,6.92
2019-04-20T05:52:35.192Z,7.04
2019-04-20T05:55:03.181Z,7.15
2019-04-20T05:57:42.273Z,7.25
2019-04-20T06:00:15.898Z,7.43
2019-04-20T06:02:45.056Z,7.57
2019-04-20T06:05:22.347Z,7.72
2019-04-20T06:07:54.828Z,7.86
2019-04-20T06:10:32.062Z,7.95
2019-04-20T06:13:08.493Z,8.07
2019-04-20T06:16:07.348Z,8.20
2019-04-20T06:18:44.113Z,8.42
2019-04-20T06:21:35.480Z,8.65
2019-04-20T06:24:10.004Z,8.83
2019-04-20T06:26:55.111Z,8.96
2019-04-20T06:29:18.338Z,9.07
2019-04-20T06:32:05.162Z,9.25
2019-04-20T06:37:00.524Z,9.70
2019-04-20T06:42:29.020Z,10.05
2019-04-20T06:44:53.141Z,10.26
2019-04-20T06:47:24.481Z,10.47
2019-04-20T06:49:56.685Z,10.69
2019-04-20T06:52:37.428Z,11.07
2019-04-20T06:55:15.655Z,11.28
2019-04-20T06:57:54.701Z,11.45
2019-04-20T07:00:22.855Z,11.94
2019-04-20T07:03:05.702Z,12.05
2019-04-20T07:05:39.495Z,12.05
2019-04-20T07:08:36.049Z,12.14
2019-04-20T07:11:04.271Z,12.38
2019-04-20T07:13:17.803Z,12.52
2019-04-20T07:16:13.775Z,12.68
2019-04-20T07:19:24.158Z,12.82
2019-04-20T07:22:23.342Z,12.95
2019-04-20T07:24:48.760Z,12.98
2019-04-20T07:27:16.982Z,13.18
2019-04-20T07:29:51.999Z,13.42
2019-04-20T07:32:19.294Z,13.48
2019-04-20T07:34:56.705Z,13.63
2019-04-20T07:40:10.434Z,13.93
2019-04-20T07:42:46.768Z,14.13
2019-04-20T07:45:21.673Z,14.27
2019-04-20T07:50:18.894Z,14.24
2019-04-20T07:52:51.634Z,14.43
2019-04-20T07:55:49.553Z,14.60
2019-04-20T07:58:07.598Z,14.58
2019-04-20T08:00:56.555Z,14.78
2019-04-20T08:03:39.458Z,14.99
2019-04-20T08:06:01.105Z,15.14
2019-04-20T08:08:43.765Z,15.09
2019-04-20T08:11:21.127Z,15.17
2019-04-20T08:13:56.969Z,15.34
2019-04-20T08:16:44.002Z,15.41
2019-04-20T08:19:08.209Z,15.61
2019-04-20T08:21:45.021Z,15.71
2019-04-20T08:24:13.468Z,15.78
2019-04-20T08:26:40.193Z,15.95
2019-04-20T08:29:33.821Z,16.11
2019-04-20T08:32:51.603Z,16.15
2019-04-20T08:35:50.275Z,16.25
2019-04-20T12:53:22.471Z,23.57
2019-04-20T12:55:58.819Z,23.57
2019-04-20T12:58:32.535Z,23.72
2019-04-20T13:01:06.606Z,23.51
2019-04-20T13:03:41.575Z,23.29
2019-04-20T13:06:14.057Z,23.03
2019-04-20T13:08:53.432Z,23.19
2019-04-20T13:11:24.937Z,23.42
2019-04-20T13:14:34.718Z,22.90
2019-04-20T13:17:08.306Z,22.95
2019-04-20T13:19:41.532Z,23.15
2019-04-20T13:22:16.931Z,22.99
2019-04-20T13:24:49.347Z,22.83
2019-04-20T13:27:31.085Z,22.97
2019-04-20T13:30:25.912Z,23.05
2019-04-20T13:33:23.718Z,23.10
2019-04-20T13:36:01.641Z,22.02
2019-04-20T13:38:34.598Z,22.76
2019-04-20T13:41:06.790Z,22.77
2019-04-20T13:43:38.177Z,22.94
2019-04-20T13:46:13.170Z,22.93
2019-04-20T13:48:44.861Z,22.60
2019-04-20T13:51:18.956Z,22.45
2019-04-20T13:53:53.287Z,22.64
2019-04-20T13:56:28.066Z,22.74
2019-04-20T13:59:19.625Z,22.80
2019-04-20T14:02:01.327Z,22.60
2019-04-20T14:04:46.545Z,22.76
2019-04-20T14:07:20.338Z,22.79
2019-04-20T14:09:53.456Z,22.77
2019-04-20T14:12:32.423Z,22.82
2019-04-20T14:15:01.264Z,22.89
2019-04-20T14:17:35.100Z,22.80
2019-04-20T14:20:12.087Z,22.75
2019-04-20T14:22:41.147Z,22.75
2019-04-20T14:25:15.241Z,22.79
2019-04-20T14:27:55.287Z,22.72
2019-04-20T14:30:29.011Z,22.64
2019-04-20T14:33:02.999Z,22.74
2019-04-20T14:35:36.895Z,22.69
2019-04-20T14:38:12.960Z,22.69
2019-04-20T14:40:46.205Z,22.62
2019-04-20T14:43:19.233Z,22.47
2019-04-20T14:45:56.681Z,22.51
2019-04-20T14:48:29.101Z,22.59
2019-04-20T14:51:02.019Z,22.58
2019-04-20T14:53:35.607Z,22.49
2019-04-20T14:56:07.419Z,22.47
2019-04-20T14:58:47.231Z,22.39
2019-04-20T15:01:30.563Z,22.46
2019-04-20T15:04:09.305Z,22.59
2019-04-20T15:06:39.892Z,21.52
2019-04-20T15:09:14.696Z,22.36
2019-04-20T15:11:46.621Z,22.39
2019-04-20T15:14:20.734Z,22.32
2019-04-20T15:16:54.387Z,22.31
2019-04-20T15:19:50.045Z,22.27
2019-04-20T15:22:47.627Z,22.30
2019-04-20T15:25:19.202Z,22.28
2019-04-20T15:27:54.454Z,22.28
2019-04-20T15:30:27.059Z,22.22
2019-04-20T15:33:01.070Z,22.18
2019-04-20T15:35:34.741Z,22.20
2019-04-20T15:38:09.179Z,22.19
2019-04-20T15:40:41.488Z,22.14
2019-04-20T15:43:19.429Z,22.08
2019-04-20T15:45:52.092Z,21.98
2019-04-20T15:48:25.934Z,21.98
2019-04-20T15:50:59.238Z,21.88
2019-04-20T15:53:31.907Z,21.80
2019-04-20T15:56:14.442Z,21.78
2019-04-20T15:58:46.273Z,21.64
2019-04-20T16:01:20.709Z,21.66
2019-04-20T16:03:57.587Z,21.55
2019-04-20T16:06:31.576Z,21.53
2019-04-20T16:09:08.471Z,21.47
2019-04-20T16:11:41.397Z,21.38
2019-04-20T16:14:15.491Z,21.38
2019-04-20T16:16:48.624Z,21.36
2019-04-20T16:19:32.833Z,21.35
2019-04-20T16:21:54.377Z,21.32
2019-04-20T16:24:32.916Z,21.28
2019-04-20T16:27:21.296Z,21.25
2019-04-20T16:29:55.844Z,21.13
2019-04-20T16:32:30.427Z,21.10
2019-04-20T16:35:04.660Z,21.06
2019-04-20T16:37:36.608Z,21.04
2019-04-20T16:40:11.649Z,21.03
2019-04-20T16:42:44.315Z,20.86
2019-04-20T16:45:17.457Z,20.80
2019-04-20T16:47:50.557Z,20.73
2019-04-20T16:50:22.778Z,20.56
2019-04-20T16:52:54.980Z,20.50
2019-04-20T16:55:28.637Z,20.40
2019-04-20T16:58:01.777Z,20.40
2019-04-20T17:00:35.697Z,20.31
2019-04-20T17:03:11.079Z,20.28
2019-04-20T17:05:43.610Z,20.14
2019-04-20T17:08:16.846Z,20.07
2019-04-20T17:10:48.800Z,20.01
2019-04-20T17:13:32.966Z,19.86
2019-04-20T17:15:55.446Z,19.71
2019-04-20T17:18:29.467Z,19.59
2019-04-20T17:21:05.845Z,19.42
2019-04-20T17:23:35.230Z,19.33
2019-04-20T17:26:10.426Z,19.21
2019-04-20T17:29:10.617Z,19.04
2019-04-20T17:31:55.702Z,18.92
2019-04-20T17:34:45.597Z,18.79
2019-04-20T17:37:04.252Z,18.62
2019-04-20T17:39:53.974Z,18.42
2019-04-20T17:42:25.071Z,18.23
2019-04-20T17:44:52.966Z,18.11
2019-04-20T17:47:37.275Z,18.00
2019-04-20T17:50:11.619Z,17.92
2019-04-20T17:52:52.592Z,17.83
2019-04-20T17:55:17.602Z,17.66
2019-04-20T17:57:41.545Z,17.58
2019-04-20T18:00:24.169Z,17.42
2019-04-20T18:03:12.561Z,17.32
2019-04-20T18:05:58.562Z,17.26
2019-04-20T18:08:29.947Z,17.18
2019-04-20T18:10:57.269Z,17.09
2019-04-20T18:13:23.986Z,16.98
2019-04-20T18:16:17.016Z,16.81
2019-04-20T18:18:58.486Z,16.61
2019-04-20T18:21:38.388Z,16.43
2019-04-20T18:24:24.170Z,16.19
2019-04-20T18:27:05.594Z,16.00
2019-04-20T18:29:38.389Z,15.83
2019-04-20T18:32:07.552Z,15.69
2019-04-20T18:35:08.360Z,15.55
2019-04-20T18:37:39.734Z,15.39
2019-04-20T18:40:15.218Z,15.28
2019-04-20T18:42:57.179Z,15.19
2019-04-20T18:45:33.811Z,15.12
2019-04-20T18:48:12.978Z,14.99
2019-04-20T18:50:35.594Z,14.83
2019-04-20T18:53:03.506Z,14.72
2019-04-20T18:55:43.818Z,14.68
2019-04-20T18:58:11.362Z,14.58
2019-04-20T19:00:49.690Z,14.49
2019-04-20T19:03:28.990Z,14.40
2019-04-20T19:05:53.708Z,14.31
2019-04-20T19:08:33.897Z,14.24
2019-04-20T19:11:06.490Z,14.18
2019-04-20T19:13:47.486Z,14.08
2019-04-20T19:16:33.481Z,13.91
2019-04-20T19:19:17.930Z,13.78
2019-04-20T19:21:38.198Z,13.55
2019-04-20T19:24:13.280Z,13.48
2019-04-20T19:26:50.840Z,13.26
2019-04-20T19:29:26.450Z,13.08
2019-04-20T19:32:17.787Z,12.84
2019-04-20T19:34:46.409Z,12.80
2019-04-20T19:37:15.847Z,12.78
2019-04-20T19:39:57.141Z,12.68
2019-04-20T19:42:32.787Z,12.48
2019-04-20T19:45:08.848Z,12.41
2019-04-20T19:47:48.331Z,12.39
2019-04-20T19:50:31.356Z,12.36
2019-04-20T19:53:05.752Z,12.30
2019-04-20T19:55:28.131Z,12.21
2019-04-20T19:58:02.500Z,12.06
2019-04-20T20:00:50.560Z,11.91
2019-04-20T20:03:19.744Z,11.76
2019-04-20T20:05:54.786Z,11.53
2019-04-20T20:08:34.542Z,11.53
2019-04-20T20:11:04.668Z,11.39
2019-04-20T20:13:44.702Z,11.31
2019-04-20T20:16:23.516Z,11.06
2019-04-20T20:19:01.922Z,11.06
2019-04-20T20:21:40.561Z,10.86
2019-04-20T20:23:59.711Z,10.80
2019-04-20T20:26:36.984Z,10.71
2019-04-20T20:29:17.144Z,10.76
2019-04-20T20:32:02.039Z,10.76
2019-04-20T20:34:26.680Z,10.71
2019-04-20T20:36:54.670Z,10.71
2019-04-20T20:39:29.633Z,10.58
2019-04-20T20:42:15.149Z,10.36
2019-04-20T20:45:09.669Z,10.36
2019-04-20T20:47:49.037Z,10.28
2019-04-20T20:50:31.586Z,10.17
2019-04-20T20:52:57.770Z,10.14
2019-04-20T20:55:33.515Z,10.14
2019-04-20T20:58:01.837Z,10.02
2019-04-20T21:00:37.219Z,9.90
2019-04-20T21:03:06.038Z,9.84
2019-04-20T21:05:37.951Z,9.84
2019-04-20T21:08:11.423Z,9.80
2019-04-20T21:10:45.711Z,9.80
2019-04-20T21:13:19.089Z,9.76
2019-04-20T21:16:02.403Z,9.67
2019-04-20T21:18:47.500Z,9.62
2019-04-20T21:21:39.897Z,9.62
2019-04-20T21:24:28.772Z,9.58
2019-04-20T21:27:14.003Z,9.54
2019-04-20T21:29:56.028Z,9.48
2019-04-20T21:32:33.112Z,9.42
2019-04-20T21:35:10.516Z,9.36
2019-04-20T21:37:48.106Z,9.24
2019-04-20T21:40:27.964Z,9.24
2019-04-20T21:43:03.582Z,9.16
2019-04-20T21:45:48.504Z,9.16
2019-04-20T21:48:49.195Z,9.10
2019-04-20T21:51:19.167Z,9.01
2019-04-20T21:53:57.902Z,8.95
2019-04-20T21:56:33.568Z,8.95
2019-04-20T21:59:15.270Z,8.93
2019-04-20T22:01:46.424Z,8.86
2019-04-20T22:04:14.449Z,8.77
2019-04-20T22:06:47.727Z,8.71
2019-04-20T22:09:20.434Z,8.71
2019-04-20T22:12:02.315Z,8.67
2019-04-20T22:14:35.830Z,8.64
2019-04-20T22:17:15.112Z,8.61
2019-04-20T22:19:59.171Z,8.59
2019-04-20T22:22:39.774Z,8.57
2019-04-20T22:25:11.784Z,8.54
2019-04-20T22:27:34.975Z,8.49
2019-04-20T22:30:08.216Z,8.44
2019-04-20T22:32:44.169Z,8.40
2019-04-20T22:35:17.106Z,8.36
2019-04-20T22:38:06.577Z,8.31
2019-04-20T22:40:33.959Z,8.22
2019-04-20T22:43:08.410Z,8.17
2019-04-20T22:45:46.987Z,8.10
2019-04-20T22:48:16.313Z,8.03
2019-04-20T22:51:10.318Z,7.94
2019-04-20T22:53:36.506Z,7.76
2019-04-20T22:56:14.766Z,7.73
2019-04-20T22:58:43.460Z,7.65
2019-04-20T23:01:17.879Z,7.57
2019-04-20T23:03:41.294Z,7.58
2019-04-20T23:06:16.625Z,7.56
2019-04-20T23:08:56.389Z,7.49
2019-04-20T23:11:28.486Z,7.45
2019-04-20T23:14:00.450Z,7.45
2019-04-20T23:16:39.257Z,7.45
2019-04-20T23:19:05.369Z,7.37
2019-04-20T23:21:46.747Z,7.32
2019-04-20T23:24:16.289Z,7.30
2019-04-20T23:26:53.174Z,7.27
2019-04-20T23:29:34.000Z,7.26
2019-04-20T23:32:07.650Z,7.25
2019-04-20T23:34:39.149Z,7.08
2019-04-20T23:37:18.683Z,7.03
2019-04-20T23:39:48.828Z,7.01
2019-04-20T23:42:28.057Z,6.96
2019-04-20T23:45:26.942Z,6.93
2019-04-20T23:48:02.774Z,6.93
2019-04-20T23:50:48.925Z,6.91
2019-04-20T23:53:24.671Z,6.90
2019-04-20T23:55:41.426Z,6.72
2019-04-20T23:58:16.384Z,6.67
